Time;durP1;ratioP1;P1;durP2;ratioP2;P2;SDS_P1;SDS_P2;PMS_P1;PMS_P2;Temp;Humidity;BMP_temperature;BMP_pressure;BME280_temperature;BME280_humidity;BME280_pressure;Samples;Min_cycle;Max_cycle;Signal;HPM_P1;HPM_P2
2024/01/06 00:00:27;;;;;;;3.93;2.00;;;;;;;;;;5041269;28;20209;-63
2024/01/06 00:02:54;;;;;;;3.40;2.33;;;;;;;;;;5040449;28;20207;-63
2024/01/06 00:05:22;;;;;;;2.80;2.00;;;;;;;;;;5043596;28;20223;-63
2024/01/06 00:07:50;;;;;;;5.27;2.43;;;;;;;;;;5036652;28;20200;-62
2024/01/06 00:10:17;;;;;;;2.80;1.90;;;;;;;;;;5037330;28;20269;-64
2024/01/06 00:12:44;;;;;;;6.23;2.33;;;;;;;;;;5054007;28;20203;-63
2024/01/06 00:15:11;;;;;;;5.23;2.30;;;;;;;;;;5046177;28;20198;-64
2024/01/06 00:17:38;;;;;;;6.40;2.47;;;;;;;;;;5051849;28;20212;-64
2024/01/06 00:20:06;;;;;;;8.80;3.07;;;;;;;;;;5048077;28;20203;-64
2024/01/06 00:22:35;;;;;;;4.33;2.33;;;;;;;;;;5044370;28;20204;-63
2024/01/06 00:25:02;;;;;;;4.37;2.10;;;;;;;;;;5044553;28;20242;-65
2024/01/06 00:27:29;;;;;;;6.17;2.50;;;;;;;;;;5044384;28;20208;-63
2024/01/06 00:29:56;;;;;;;4.33;2.60;;;;;;;;;;5045728;28;20199;-64
2024/01/06 00:32:23;;;;;;;4.27;2.40;;;;;;;;;;5045347;28;20206;-63
2024/01/06 00:34:50;;;;;;;8.57;2.83;;;;;;;;;;5043775;28;20195;-64
2024/01/06 00:37:17;;;;;;;8.10;2.63;;;;;;;;;;5046991;28;20250;-63
2024/01/06 00:39:46;;;;;;;4.77;2.50;;;;;;;;;;5049824;28;20322;-63
2024/01/06 00:42:13;;;;;;;4.93;2.70;;;;;;;;;;5044745;28;20204;-64
2024/01/06 00:44:40;;;;;;;6.73;2.77;;;;;;;;;;5041231;28;20231;-69
2024/01/06 00:47:07;;;;;;;9.03;2.60;;;;;;;;;;5042001;28;20210;-68
2024/01/06 00:49:34;;;;;;;5.63;2.90;;;;;;;;;;5043097;28;20199;-68
2024/01/06 00:52:01;;;;;;;4.60;2.40;;;;;;;;;;5043280;28;20211;-68
2024/01/06 00:54:28;;;;;;;6.13;2.90;;;;;;;;;;5049168;28;20196;-68
2024/01/06 00:56:57;;;;;;;6.57;3.00;;;;;;;;;;5042310;28;20206;-68
2024/01/06 00:59:25;;;;;;;6.87;3.07;;;;;;;;;;5044057;28;20206;-69
2024/01/06 01:01:52;;;;;;;4.10;2.47;;;;;;;;;;5045433;28;20204;-68
2024/01/06 01:04:19;;;;;;;6.30;2.93;;;;;;;;;;5048677;28;20211;-69
2024/01/06 01:06:46;;;;;;;6.07;3.00;;;;;;;;;;5045370;28;20199;-68
2024/01/06 01:09:14;;;;;;;7.17;3.10;;;;;;;;;;5047769;28;20199;-69
2024/01/06 01:11:41;;;;;;;7.90;3.20;;;;;;;;;;5042589;28;20207;-68
2024/01/06 01:14:09;;;;;;;5.70;3.07;;;;;;;;;;5047048;28;20195;-67
2024/01/06 01:16:37;;;;;;;4.33;2.70;;;;;;;;;;5042053;28;20213;-68
2024/01/06 01:19:04;;;;;;;6.43;2.70;;;;;;;;;;5046034;28;20209;-68
2024/01/06 01:21:31;;;;;;;6.30;3.07;;;;;;;;;;5045887;28;20214;-68
2024/01/06 01:23:58;;;;;;;5.47;2.77;;;;;;;;;;5047514;28;20220;-69
2024/01/06 01:26:25;;;;;;;3.33;2.90;;;;;;;;;;5040222;28;20208;-69
2024/01/06 01:28:52;;;;;;;8.23;3.23;;;;;;;;;;5040800;28;20199;-69
2024/01/06 01:31:21;;;;;;;3.90;2.30;;;;;;;;;;5045030;28;20430;-68
2024/01/06 01:33:48;;;;;;;3.23;2.47;;;;;;;;;;5046147;28;20204;-68
2024/01/06 01:36:15;;;;;;;5.80;3.20;;;;;;;;;;5045256;28;20207;-69
2024/01/06 01:38:42;;;;;;;4.37;2.70;;;;;;;;;;5044017;28;20227;-68
2024/01/06 01:41:09;;;;;;;4.37;3.30;;;;;;;;;;5042476;28;20207;-68
2024/01/06 01:43:37;;;;;;;4.90;3.67;;;;;;;;;;5032161;28;21103;-68
2024/01/06 01:46:05;;;;;;;5.33;2.83;;;;;;;;;;5037171;28;20204;-68
2024/01/06 01:48:34;;;;;;;4.90;3.30;;;;;;;;;;5033773;28;20203;-69
2024/01/06 01:51:01;;;;;;;4.07;3.27;;;;;;;;;;5049371;28;20208;-69
2024/01/06 01:53:28;;;;;;;5.47;3.10;;;;;;;;;;5048074;28;20195;-69
2024/01/06 01:55:56;;;;;;;4.13;3.43;;;;;;;;;;5046682;28;20203;-69
2024/01/06 01:58:23;;;;;;;6.57;3.43;;;;;;;;;;5042801;28;20210;-69
2024/01/06 02:00:50;;;;;;;5.67;3.80;;;;;;;;;;5040122;28;20215;-69
2024/01/06 02:03:18;;;;;;;4.00;3.50;;;;;;;;;;5041787;28;20215;-69
2024/01/06 02:05:46;;;;;;;5.00;3.60;;;;;;;;;;5042744;28;20223;-68
2024/01/06 02:08:13;;;;;;;4.40;3.17;;;;;;;;;;5043775;28;20206;-68
2024/01/06 02:10:41;;;;;;;4.17;3.10;;;;;;;;;;5043636;28;20327;-68
2024/01/06 02:13:11;;;;;;;7.47;3.70;;;;;;;;;;5044978;28;20207;-67
2024/01/06 02:15:38;;;;;;;3.97;3.57;;;;;;;;;;5045256;28;20294;-68
2024/01/06 02:18:06;;;;;;;5.70;3.57;;;;;;;;;;5047128;28;20210;-68
2024/01/06 02:20:33;;;;;;;5.13;3.50;;;;;;;;;;5044753;28;20208;-68
2024/01/06 02:23:02;;;;;;;4.83;3.23;;;;;;;;;;5038558;28;20208;-68
2024/01/06 02:25:29;;;;;;;5.47;3.33;;;;;;;;;;5043053;28;20215;-69
2024/01/06 02:27:56;;;;;;;6.13;3.87;;;;;;;;;;5040783;28;20204;-68
2024/01/06 02:30:23;;;;;;;4.63;3.77;;;;;;;;;;5040706;28;20231;-67
2024/01/06 02:32:50;;;;;;;3.80;3.40;;;;;;;;;;5048036;28;20200;-68
2024/01/06 02:35:17;;;;;;;4.77;3.13;;;;;;;;;;5044157;28;20204;-67
2024/01/06 02:37:44;;;;;;;4.10;3.40;;;;;;;;;;5036676;28;20235;-68
2024/01/06 02:40:14;;;;;;;5.50;3.60;;;;;;;;;;5044100;28;20207;-69
2024/01/06 02:42:41;;;;;;;4.23;3.63;;;;;;;;;;5045459;28;20211;-69
2024/01/06 02:45:08;;;;;;;5.40;3.70;;;;;;;;;;5044325;28;20231;-68
2024/01/06 02:47:35;;;;;;;6.40;3.87;;;;;;;;;;5045304;28;20283;-68
2024/01/06 02:50:02;;;;;;;5.63;4.23;;;;;;;;;;5041989;28;20200;-68
2024/01/06 02:52:29;;;;;;;6.33;3.90;;;;;;;;;;5043678;28;20202;-67
2024/01/06 02:54:57;;;;;;;5.60;3.90;;;;;;;;;;5037937;28;20202;-68
2024/01/06 02:57:25;;;;;;;4.37;3.60;;;;;;;;;;5042915;28;20203;-69
2024/01/06 02:59:52;;;;;;;6.50;3.67;;;;;;;;;;5043221;28;20199;-69
2024/01/06 03:02:19;;;;;;;5.53;3.80;;;;;;;;;;5046581;28;20207;-68
2024/01/06 03:04:46;;;;;;;4.43;3.63;;;;;;;;;;5044746;28;20227;-68
2024/01/06 03:07:14;;;;;;;6.33;4.00;;;;;;;;;;5036377;28;20217;-68
2024/01/06 03:09:41;;;;;;;5.27;3.80;;;;;;;;;;5048320;28;20222;-68
2024/01/06 03:12:08;;;;;;;5.87;3.97;;;;;;;;;;5043472;28;20212;-67
2024/01/06 03:14:37;;;;;;;6.40;3.73;;;;;;;;;;5044435;28;20290;-69
2024/01/06 03:17:04;;;;;;;5.83;3.60;;;;;;;;;;5043861;28;20199;-68
2024/01/06 03:19:31;;;;;;;3.87;3.23;;;;;;;;;;5044042;28;20203;-68
2024/01/06 03:21:59;;;;;;;4.67;3.70;;;;;;;;;;5042381;28;20227;-68
2024/01/06 03:24:26;;;;;;;5.20;3.67;;;;;;;;;;5049389;28;20202;-68
2024/01/06 03:26:53;;;;;;;3.43;3.10;;;;;;;;;;5042128;28;20207;-68
2024/01/06 03:29:20;;;;;;;4.77;3.40;;;;;;;;;;5042050;28;20210;-69
2024/01/06 03:31:49;;;;;;;3.47;3.17;;;;;;;;;;5043558;28;20208;-67
2024/01/06 03:34:16;;;;;;;4.67;3.53;;;;;;;;;;5045489;28;20303;-68
2024/01/06 03:36:43;;;;;;;5.73;3.27;;;;;;;;;;5040091;28;20229;-68
2024/01/06 03:39:12;;;;;;;3.73;3.30;;;;;;;;;;5039531;28;20236;-68
2024/01/06 03:41:39;;;;;;;4.73;3.30;;;;;;;;;;5039684;28;20246;-69
2024/01/06 03:44:06;;;;;;;3.93;3.50;;;;;;;;;;5033895;28;20207;-67
2024/01/06 03:46:34;;;;;;;3.63;3.33;;;;;;;;;;5039360;28;20223;-68
2024/01/06 03:49:02;;;;;;;5.03;3.37;;;;;;;;;;5049282;28;20211;-67
2024/01/06 03:51:29;;;;;;;7.07;3.57;;;;;;;;;;5048065;28;20207;-68
2024/01/06 03:53:56;;;;;;;4.30;3.20;;;;;;;;;;5050452;28;20207;-67
2024/01/06 03:56:24;;;;;;;4.70;3.20;;;;;;;;;;5053068;28;20200;-69
2024/01/06 03:58:51;;;;;;;3.73;3.43;;;;;;;;;;5047332;28;20663;-68
2024/01/06 04:01:18;;;;;;;6.20;3.50;;;;;;;;;;5051120;28;20220;-68
2024/01/06 04:03:45;;;;;;;4.23;2.90;;;;;;;;;;5045370;28;20206;-68
2024/01/06 04:06:13;;;;;;;3.70;3.17;;;;;;;;;;5047067;28;20224;-67
2024/01/06 04:08:41;;;;;;;4.67;3.67;;;;;;;;;;5043039;28;20211;-68
2024/01/06 04:11:08;;;;;;;5.83;3.47;;;;;;;;;;5048865;28;20199;-67
2024/01/06 04:13:35;;;;;;;3.60;3.30;;;;;;;;;;5047762;28;20201;-68
2024/01/06 04:16:02;;;;;;;5.10;3.30;;;;;;;;;;5051139;28;20207;-63
2024/01/06 04:18:29;;;;;;;4.40;3.20;;;;;;;;;;5050290;28;20200;-63
2024/01/06 04:20:57;;;;;;;3.70;3.17;;;;;;;;;;5048011;28;20207;-63
2024/01/06 04:23:25;;;;;;;3.60;2.70;;;;;;;;;;5052252;28;20207;-63
2024/01/06 04:25:53;;;;;;;3.37;2.87;;;;;;;;;;5047628;28;20231;-63
2024/01/06 04:28:20;;;;;;;3.17;2.87;;;;;;;;;;5052560;28;20211;-62
2024/01/06 04:30:47;;;;;;;3.10;2.50;;;;;;;;;;5048367;28;20291;-63
2024/01/06 04:33:14;;;;;;;2.63;2.40;;;;;;;;;;5052408;28;20200;-63
2024/01/06 04:35:41;;;;;;;2.97;2.47;;;;;;;;;;5047292;28;20206;-63
2024/01/06 04:38:09;;;;;;;4.10;2.60;;;;;;;;;;5053032;28;20235;-63
2024/01/06 04:40:37;;;;;;;3.70;2.67;;;;;;;;;;5049913;28;20227;-63
2024/01/06 04:43:04;;;;;;;4.63;2.50;;;;;;;;;;5047870;28;20211;-63
2024/01/06 04:45:31;;;;;;;3.17;2.77;;;;;;;;;;5053007;28;20229;-63
2024/01/06 04:47:59;;;;;;;2.93;2.57;;;;;;;;;;5050443;28;20221;-63
2024/01/06 04:50:26;;;;;;;2.67;2.47;;;;;;;;;;5048709;28;20221;-64
2024/01/06 04:52:53;;;;;;;2.50;2.30;;;;;;;;;;5048925;28;20203;-63
2024/01/06 04:55:20;;;;;;;2.70;2.30;;;;;;;;;;5051478;28;20210;-63
2024/01/06 04:57:49;;;;;;;3.20;2.90;;;;;;;;;;5040199;28;20211;-63
2024/01/06 05:00:16;;;;;;;3.73;2.70;;;;;;;;;;5043266;28;20203;-64
2024/01/06 05:02:44;;;;;;;2.87;2.67;;;;;;;;;;5047114;28;20211;-63
2024/01/06 05:05:11;;;;;;;5.23;2.50;;;;;;;;;;5040764;28;20219;-62
2024/01/06 05:07:38;;;;;;;3.60;2.37;;;;;;;;;;5050325;28;20222;-63
2024/01/06 05:10:05;;;;;;;2.57;2.37;;;;;;;;;;5050359;28;20206;-63
2024/01/06 05:12:32;;;;;;;2.60;2.40;;;;;;;;;;5043298;28;20635;-63
2024/01/06 05:15:01;;;;;;;2.73;2.40;;;;;;;;;;5044003;28;20214;-64
2024/01/06 05:17:28;;;;;;;2.87;2.53;;;;;;;;;;5045712;28;20214;-63
2024/01/06 05:19:55;;;;;;;3.67;2.37;;;;;;;;;;5041173;28;20205;-64
2024/01/06 05:22:22;;;;;;;2.60;2.40;;;;;;;;;;5051001;28;20211;-63
2024/01/06 05:24:52;;;;;;;2.60;2.40;;;;;;;;;;5043799;28;20389;-63
2024/01/06 05:27:20;;;;;;;2.40;2.20;;;;;;;;;;5043896;28;20215;-63
2024/01/06 05:29:48;;;;;;;2.43;1.93;;;;;;;;;;5044936;28;20199;-64
2024/01/06 05:32:17;;;;;;;2.20;2.00;;;;;;;;;;5045360;28;20223;-64
2024/01/06 05:34:45;;;;;;;2.00;1.90;;;;;;;;;;5043492;28;20226;-60
2024/01/06 05:37:12;;;;;;;2.40;2.20;;;;;;;;;;5046438;28;20230;-62
2024/01/06 05:39:39;;;;;;;2.30;2.10;;;;;;;;;;5044525;28;20262;-61
2024/01/06 05:42:06;;;;;;;2.47;2.27;;;;;;;;;;5036575;28;20262;-61
2024/01/06 05:44:37;;;;;;;2.77;2.33;;;;;;;;;;5040653;28;20203;-61
2024/01/06 05:47:04;;;;;;;3.17;2.23;;;;;;;;;;5036519;28;20277;-60
2024/01/06 05:49:32;;;;;;;2.47;2.27;;;;;;;;;;5043808;28;20204;-60
2024/01/06 05:51:59;;;;;;;2.60;2.40;;;;;;;;;;5045370;28;20224;-61
2024/01/06 05:54:26;;;;;;;2.60;2.40;;;;;;;;;;5042945;28;20208;-61
2024/01/06 05:56:53;;;;;;;2.80;2.23;;;;;;;;;;5045794;28;20200;-61
2024/01/06 05:59:20;;;;;;;2.77;2.57;;;;;;;;;;5039546;28;20216;-61
2024/01/06 06:01:48;;;;;;;2.60;2.40;;;;;;;;;;5042026;28;20203;-62
2024/01/06 06:04:15;;;;;;;2.70;2.17;;;;;;;;;;5044439;28;20216;-61
2024/01/06 06:06:43;;;;;;;2.37;2.17;;;;;;;;;;5045594;28;20227;-60
2024/01/06 06:09:10;;;;;;;2.50;2.30;;;;;;;;;;5040151;28;20218;-60
2024/01/06 06:11:37;;;;;;;2.80;2.60;;;;;;;;;;5045936;28;20203;-61
2024/01/06 06:14:04;;;;;;;3.10;2.67;;;;;;;;;;5043844;28;20200;-62
2024/01/06 06:16:32;;;;;;;3.00;2.70;;;;;;;;;;5040554;28;20213;-61
2024/01/06 06:18:59;;;;;;;3.10;2.90;;;;;;;;;;5045108;28;20195;-60
2024/01/06 06:21:26;;;;;;;2.57;2.37;;;;;;;;;;5041213;28;20208;-61
2024/01/06 06:23:54;;;;;;;2.20;2.00;;;;;;;;;;5043396;28;20204;-60
2024/01/06 06:26:21;;;;;;;2.80;2.43;;;;;;;;;;5045331;28;20222;-60
2024/01/06 06:28:48;;;;;;;3.20;2.57;;;;;;;;;;5043554;28;20204;-61
2024/01/06 06:31:15;;;;;;;3.57;2.30;;;;;;;;;;5045433;28;20203;-64
2024/01/06 06:33:43;;;;;;;3.07;2.47;;;;;;;;;;5043725;28;20211;-64
2024/01/06 06:36:10;;;;;;;2.83;2.40;;;;;;;;;;5042225;28;20203;-68
2024/01/06 06:38:37;;;;;;;2.40;2.20;;;;;;;;;;5044516;28;20361;-68
2024/01/06 06:41:06;;;;;;;2.40;2.20;;;;;;;;;;5041006;28;20209;-68
2024/01/06 06:43:34;;;;;;;2.57;2.37;;;;;;;;;;5041225;28;20203;-68
2024/01/06 06:46:01;;;;;;;2.60;2.40;;;;;;;;;;5044273;28;20317;-68
2024/01/06 06:48:28;;;;;;;3.30;2.70;;;;;;;;;;5042522;28;20206;-68
2024/01/06 06:50:55;;;;;;;3.37;2.57;;;;;;;;;;5041280;28;20215;-68
2024/01/06 06:53:22;;;;;;;2.70;2.50;;;;;;;;;;5043077;28;20269;-68
2024/01/06 06:55:49;;;;;;;3.43;2.70;;;;;;;;;;5045661;28;20205;-69
2024/01/06 06:58:17;;;;;;;3.20;2.37;;;;;;;;;;5041595;28;20203;-67
2024/01/06 07:00:45;;;;;;;2.60;2.40;;;;;;;;;;5041228;28;20209;-69
2024/01/06 07:03:13;;;;;;;2.80;2.60;;;;;;;;;;5043397;28;20210;-68
2024/01/06 07:05:40;;;;;;;3.17;2.33;;;;;;;;;;5044322;28;20234;-68
2024/01/06 07:08:08;;;;;;;4.20;2.87;;;;;;;;;;5041606;28;20210;-69
2024/01/06 07:10:35;;;;;;;4.07;3.10;;;;;;;;;;5041023;28;20206;-68
2024/01/06 07:13:02;;;;;;;3.50;3.20;;;;;;;;;;5040276;28;20204;-68
2024/01/06 07:15:31;;;;;;;5.30;4.40;;;;;;;;;;5044573;28;20206;-68
2024/01/06 07:17:58;;;;;;;3.40;3.10;;;;;;;;;;5044591;28;20284;-68
2024/01/06 07:20:25;;;;;;;2.77;2.57;;;;;;;;;;5048822;28;20203;-69
2024/01/06 07:22:52;;;;;;;2.43;2.23;;;;;;;;;;5042833;28;20203;-68
2024/01/06 07:25:19;;;;;;;2.90;2.40;;;;;;;;;;5045855;28;20211;-69
2024/01/06 07:27:46;;;;;;;2.73;2.53;;;;;;;;;;5047802;28;21908;-68
2024/01/06 07:30:13;;;;;;;2.70;2.50;;;;;;;;;;5045193;28;20230;-68
2024/01/06 07:32:42;;;;;;;2.83;2.57;;;;;;;;;;5045599;28;20207;-68
2024/01/06 07:35:09;;;;;;;2.93;2.63;;;;;;;;;;5043839;28;20201;-68
2024/01/06 07:37:36;;;;;;;2.90;2.70;;;;;;;;;;5042061;28;20238;-68
2024/01/06 07:40:04;;;;;;;2.60;2.40;;;;;;;;;;5050126;28;20195;-68
2024/01/06 07:42:31;;;;;;;2.50;2.30;;;;;;;;;;5048223;28;20215;-68
2024/01/06 07:44:58;;;;;;;3.13;2.07;;;;;;;;;;5041137;28;20214;-64
2024/01/06 07:47:25;;;;;;;2.87;2.53;;;;;;;;;;5044891;28;20281;-63
2024/01/06 07:49:54;;;;;;;2.10;2.00;;;;;;;;;;5043761;28;20210;-63
2024/01/06 07:52:21;;;;;;;2.37;2.03;;;;;;;;;;5046761;28;20293;-63
2024/01/06 07:54:49;;;;;;;2.87;2.40;;;;;;;;;;5047370;28;20199;-63
2024/01/06 07:57:16;;;;;;;2.40;2.20;;;;;;;;;;5047621;28;20187;-64
2024/01/06 07:59:43;;;;;;;3.50;3.20;;;;;;;;;;5045911;28;20277;-63
2024/01/06 08:02:10;;;;;;;3.53;2.70;;;;;;;;;;5040620;28;20211;-63
2024/01/06 08:04:37;;;;;;;2.77;2.57;;;;;;;;;;5040901;28;20200;-62
2024/01/06 08:07:06;;;;;;;2.27;2.07;;;;;;;;;;5041953;28;20242;-63
2024/01/06 08:09:33;;;;;;;2.83;2.30;;;;;;;;;;5038359;28;20212;-63
2024/01/06 08:12:01;;;;;;;2.40;2.20;;;;;;;;;;5042133;28;20227;-63
2024/01/06 08:14:28;;;;;;;2.23;2.13;;;;;;;;;;5043245;28;20210;-63
2024/01/06 08:16:55;;;;;;;1.90;1.80;;;;;;;;;;5039737;28;20204;-63
2024/01/06 08:19:22;;;;;;;2.30;2.10;;;;;;;;;;5043959;28;20195;-63
2024/01/06 08:21:49;;;;;;;1.90;1.80;;;;;;;;;;5037485;28;20211;-65
2024/01/06 08:24:18;;;;;;;2.00;1.90;;;;;;;;;;5037828;28;20202;-63
2024/01/06 08:26:45;;;;;;;1.70;1.60;;;;;;;;;;5039863;28;20587;-63
2024/01/06 08:29:13;;;;;;;1.70;1.60;;;;;;;;;;5046444;28;20208;-63
2024/01/06 08:31:41;;;;;;;2.10;1.90;;;;;;;;;;5044174;28;20199;-63
2024/01/06 08:34:08;;;;;;;1.80;1.70;;;;;;;;;;5041224;28;20200;-63
2024/01/06 08:36:35;;;;;;;1.80;1.70;;;;;;;;;;5040395;28;20258;-63
2024/01/06 08:39:03;;;;;;;1.80;1.70;;;;;;;;;;5027087;28;20243;-63
2024/01/06 08:41:31;;;;;;;1.70;1.60;;;;;;;;;;5030288;28;20200;-64
2024/01/06 08:43:58;;;;;;;1.80;1.70;;;;;;;;;;5030122;28;20210;-64
2024/01/06 08:46:25;;;;;;;1.73;1.63;;;;;;;;;;5027108;28;20234;-63
2024/01/06 08:48:52;;;;;;;2.87;1.70;;;;;;;;;;5029223;28;20231;-63
2024/01/06 08:51:20;;;;;;;2.13;1.70;;;;;;;;;;5029638;28;20208;-63
2024/01/06 08:53:47;;;;;;;1.50;1.40;;;;;;;;;;5027818;28;20462;-63
2024/01/06 08:56:16;;;;;;;3.83;2.90;;;;;;;;;;5047348;28;20204;-63
2024/01/06 08:58:44;;;;;;;1.97;1.83;;;;;;;;;;5043613;28;20216;-63
2024/01/06 09:01:13;;;;;;;4.27;3.87;;;;;;;;;;5045453;28;20214;-63
2024/01/06 09:03:40;;;;;;;2.70;2.50;;;;;;;;;;5029684;28;20211;-62
2024/01/06 09:06:07;;;;;;;2.57;2.37;;;;;;;;;;5031655;28;20204;-64
2024/01/06 09:08:34;;;;;;;1.50;1.40;;;;;;;;;;5028829;28;20200;-64
2024/01/06 09:11:01;;;;;;;1.70;1.60;;;;;;;;;;5030071;28;20218;-64
2024/01/06 09:13:29;;;;;;;8.83;5.97;;;;;;;;;;5036023;28;20207;-63
2024/01/06 09:15:57;;;;;;;3.60;2.70;;;;;;;;;;5043413;28;20206;-62
2024/01/06 09:18:24;;;;;;;2.10;1.93;;;;;;;;;;5045767;28;20222;-63
2024/01/06 09:20:51;;;;;;;1.40;1.40;;;;;;;;;;5045710;28;20216;-63
2024/01/06 09:23:18;;;;;;;1.63;1.53;;;;;;;;;;5040945;28;20210;-63
2024/01/06 09:25:45;;;;;;;1.67;1.40;;;;;;;;;;5045342;28;20212;-63
2024/01/06 09:28:12;;;;;;;1.53;1.43;;;;;;;;;;5040783;28;20229;-64
2024/01/06 09:30:40;;;;;;;1.23;1.23;;;;;;;;;;5037339;28;20196;-63
2024/01/06 09:33:08;;;;;;;2.00;1.33;;;;;;;;;;5038719;28;20210;-63
2024/01/06 09:35:36;;;;;;;1.23;1.13;;;;;;;;;;5036958;28;20204;-63
2024/01/06 09:38:03;;;;;;;1.30;1.30;;;;;;;;;;5046105;28;20227;-63
2024/01/06 09:40:33;;;;;;;1.57;1.47;;;;;;;;;;5042645;28;20207;-63
2024/01/06 09:43:00;;;;;;;1.47;1.37;;;;;;;;;;5039867;28;20230;-63
2024/01/06 09:45:27;;;;;;;1.40;1.30;;;;;;;;;;5031062;28;20200;-63
2024/01/06 09:47:55;;;;;;;1.40;1.30;;;;;;;;;;5042025;28;20220;-63
2024/01/06 09:50:23;;;;;;;1.50;1.40;;;;;;;;;;5040035;28;20200;-63
2024/01/06 09:52:54;;;;;;;1.20;1.20;;;;;;;;;;5039172;28;20204;-63
2024/01/06 09:55:25;;;;;;;1.13;1.13;;;;;;;;;;5037439;28;20215;-64
2024/01/06 09:57:52;;;;;;;1.50;1.40;;;;;;;;;;5042320;28;20278;-62
2024/01/06 10:00:20;;;;;;;1.30;1.20;;;;;;;;;;5027013;28;20219;-65
2024/01/06 10:02:48;;;;;;;1.67;1.57;;;;;;;;;;5028860;28;20214;-64
2024/01/06 10:05:15;;;;;;;1.80;1.70;;;;;;;;;;5037631;28;20214;-68
2024/01/06 10:07:44;;;;;;;1.60;1.50;;;;;;;;;;5039794;28;20228;-68
2024/01/06 10:10:12;;;;;;;1.77;1.50;;;;;;;;;;5045147;28;20200;-68
2024/01/06 10:12:39;;;;;;;1.20;1.20;;;;;;;;;;5044626;28;20801;-67
2024/01/06 10:15:07;;;;;;;1.40;1.30;;;;;;;;;;5042040;28;20215;-69
2024/01/06 10:17:34;;;;;;;1.40;1.30;;;;;;;;;;5043029;28;20202;-68
2024/01/06 10:20:01;;;;;;;1.27;1.20;;;;;;;;;;5041834;28;20217;-69
2024/01/06 10:22:28;;;;;;;1.23;1.17;;;;;;;;;;5042216;28;20203;-68
2024/01/06 10:24:57;;;;;;;1.50;1.40;;;;;;;;;;5034955;28;20292;-68
2024/01/06 10:27:24;;;;;;;1.37;1.23;;;;;;;;;;5041074;28;20230;-68
2024/01/06 10:29:51;;;;;;;1.50;1.40;;;;;;;;;;5041195;28;20204;-68
2024/01/06 10:32:19;;;;;;;1.37;1.30;;;;;;;;;;5037064;28;20217;-68
2024/01/06 10:34:46;;;;;;;1.80;1.70;;;;;;;;;;5035793;28;20208;-68
2024/01/06 10:37:13;;;;;;;1.50;1.40;;;;;;;;;;5038502;28;20243;-67
2024/01/06 10:39:40;;;;;;;1.20;1.20;;;;;;;;;;5033140;28;20208;-68
2024/01/06 10:42:10;;;;;;;1.70;1.60;;;;;;;;;;5039660;28;20208;-67
2024/01/06 10:44:38;;;;;;;1.83;1.73;;;;;;;;;;5037365;28;20252;-67
2024/01/06 10:47:06;;;;;;;3.07;2.17;;;;;;;;;;5040722;28;20552;-67
2024/01/06 10:49:33;;;;;;;1.87;1.77;;;;;;;;;;5038004;28;20348;-67
2024/01/06 10:52:01;;;;;;;2.13;1.70;;;;;;;;;;5037418;28;20199;-68
2024/01/06 10:54:29;;;;;;;1.97;1.87;;;;;;;;;;5042076;28;20299;-67
2024/01/06 10:56:56;;;;;;;1.63;1.53;;;;;;;;;;5039381;28;20196;-68
2024/01/06 10:59:28;;;;;;;1.80;1.70;;;;;;;;;;5046226;28;20211;-68
2024/01/06 11:01:55;;;;;;;1.80;1.60;;;;;;;;;;5038583;28;20321;-67
2024/01/06 11:04:24;;;;;;;2.20;2.00;;;;;;;;;;5043543;28;20195;-68
2024/01/06 11:06:52;;;;;;;2.07;1.87;;;;;;;;;;5043304;28;20208;-68
2024/01/06 11:09:21;;;;;;;2.00;1.90;;;;;;;;;;5038267;28;20204;-67
2024/01/06 11:11:49;;;;;;;1.90;1.80;;;;;;;;;;5040835;28;20207;-67
2024/01/06 11:14:19;;;;;;;2.30;2.10;;;;;;;;;;5043436;28;20199;-67
2024/01/06 11:16:48;;;;;;;2.90;2.20;;;;;;;;;;5041189;28;20215;-67
2024/01/06 11:19:34;;;;;;;2.93;2.73;;;;;;;;;;5043563;28;20207;-68
2024/01/06 11:22:19;;;;;;;2.60;2.40;;;;;;;;;;5041031;28;20211;-67
2024/01/06 11:24:48;;;;;;;3.80;3.50;;;;;;;;;;5039700;28;20211;-67
2024/01/06 11:27:19;;;;;;;3.20;3.00;;;;;;;;;;5043028;28;20227;-68
2024/01/06 11:29:46;;;;;;;3.97;3.57;;;;;;;;;;5037934;28;20229;-68
2024/01/06 11:32:21;;;;;;;5.70;4.90;;;;;;;;;;5039926;28;20204;-68
2024/01/06 11:34:50;;;;;;;6.20;5.60;;;;;;;;;;5040179;28;20199;-68
2024/01/06 11:37:18;;;;;;;5.93;5.00;;;;;;;;;;5041023;28;20370;-68
2024/01/06 11:39:46;;;;;;;7.77;6.97;;;;;;;;;;5040216;28;20210;-68
2024/01/06 11:42:13;;;;;;;6.50;5.90;;;;;;;;;;5040271;28;20230;-68
2024/01/06 11:44:40;;;;;;;6.53;5.93;;;;;;;;;;5041972;28;20386;-68
2024/01/06 11:47:08;;;;;;;5.87;5.30;;;;;;;;;;5039269;28;20203;-67
2024/01/06 11:49:37;;;;;;;6.43;5.83;;;;;;;;;;5041073;28;20204;-67
2024/01/06 11:52:04;;;;;;;6.23;5.70;;;;;;;;;;5037544;28;20195;-67
2024/01/06 11:54:32;;;;;;;7.37;6.37;;;;;;;;;;5042910;28;20200;-67
2024/01/06 11:56:59;;;;;;;7.03;6.33;;;;;;;;;;5051962;28;20211;-68
2024/01/06 11:59:26;;;;;;;6.90;6.30;;;;;;;;;;5041619;28;20203;-68
2024/01/06 12:01:53;;;;;;;7.07;6.40;;;;;;;;;;5040227;28;20249;-68
2024/01/06 12:04:22;;;;;;;6.70;6.10;;;;;;;;;;5036861;28;20204;-68
2024/01/06 12:06:50;;;;;;;6.90;6.30;;;;;;;;;;5039157;28;20207;-67
2024/01/06 12:09:20;;;;;;;6.27;5.67;;;;;;;;;;5046639;28;20227;-67
2024/01/06 12:11:47;;;;;;;5.83;5.33;;;;;;;;;;5035139;28;20324;-67
2024/01/06 12:14:15;;;;;;;5.97;5.37;;;;;;;;;;5032972;28;20211;-67
2024/01/06 12:16:43;;;;;;;5.50;5.00;;;;;;;;;;5034287;28;20215;-67
2024/01/06 12:19:10;;;;;;;5.27;4.80;;;;;;;;;;5032410;28;20203;-68
2024/01/06 12:21:37;;;;;;;5.50;5.00;;;;;;;;;;5034109;28;20215;-67
2024/01/06 12:24:18;;;;;;;5.17;4.70;;;;;;;;;;5031915;28;21623;-68
2024/01/06 12:26:46;;;;;;;6.03;5.43;;;;;;;;;;5049416;28;20210;-63
2024/01/06 12:29:13;;;;;;;5.07;4.67;;;;;;;;;;5048699;28;20223;-63
2024/01/06 12:31:40;;;;;;;5.80;5.30;;;;;;;;;;5043981;28;20408;-63
2024/01/06 12:34:08;;;;;;;5.33;4.83;;;;;;;;;;5046024;28;20208;-63
2024/01/06 12:36:35;;;;;;;4.30;4.00;;;;;;;;;;5041400;28;20282;-64
2024/01/06 12:39:02;;;;;;;4.80;4.40;;;;;;;;;;5028838;28;20239;-64
2024/01/06 12:41:33;;;;;;;5.27;4.87;;;;;;;;;;5027638;28;20204;-64
2024/01/06 12:44:00;;;;;;;5.43;4.93;;;;;;;;;;5026378;28;20416;-64
2024/01/06 12:46:27;;;;;;;5.33;4.83;;;;;;;;;;5027607;28;20330;-63
2024/01/06 12:48:54;;;;;;;5.83;5.30;;;;;;;;;;5026536;28;20223;-64
2024/01/06 12:51:21;;;;;;;7.07;6.10;;;;;;;;;;5028073;28;20196;-63
2024/01/06 12:53:49;;;;;;;6.27;5.67;;;;;;;;;;5029442;28;20210;-64
2024/01/06 12:56:16;;;;;;;5.73;5.23;;;;;;;;;;5026855;28;20200;-64
2024/01/06 12:58:44;;;;;;;5.83;5.33;;;;;;;;;;5038585;28;20207;-62
2024/01/06 13:01:11;;;;;;;5.50;5.00;;;;;;;;;;5042971;28;20230;-63
2024/01/06 13:03:39;;;;;;;5.60;5.10;;;;;;;;;;5039471;28;20210;-63
2024/01/06 13:06:06;;;;;;;5.17;4.77;;;;;;;;;;5040815;28;21097;-62
2024/01/06 13:08:33;;;;;;;5.33;4.90;;;;;;;;;;5044228;28;20237;-64
2024/01/06 13:11:00;;;;;;;5.27;4.83;;;;;;;;;;5046799;28;20214;-63
2024/01/06 13:13:27;;;;;;;4.87;4.43;;;;;;;;;;5045445;28;20203;-63
2024/01/06 13:15:56;;;;;;;5.50;5.00;;;;;;;;;;5040963;28;20387;-64
2024/01/06 13:18:23;;;;;;;5.13;4.73;;;;;;;;;;5046218;28;20196;-63
2024/01/06 13:20:50;;;;;;;6.00;5.40;;;;;;;;;;5047567;28;20211;-63
2024/01/06 13:23:17;;;;;;;5.70;5.20;;;;;;;;;;5029019;28;20208;-64
2024/01/06 13:25:44;;;;;;;5.83;5.30;;;;;;;;;;5025700;28;20203;-64
2024/01/06 13:28:12;;;;;;;5.20;4.80;;;;;;;;;;5027020;28;20234;-64
2024/01/06 13:30:40;;;;;;;6.97;6.30;;;;;;;;;;5028259;28;20208;-63
2024/01/06 13:33:09;;;;;;;8.80;7.17;;;;;;;;;;5028036;28;20212;-63
2024/01/06 13:35:36;;;;;;;12.20;8.70;;;;;;;;;;5027493;28;20273;-64
2024/01/06 13:38:04;;;;;;;8.80;6.83;;;;;;;;;;5027607;28;20246;-64
2024/01/06 13:40:31;;;;;;;8.37;7.07;;;;;;;;;;5029404;28;20231;-63
2024/01/06 13:42:59;;;;;;;5.47;4.97;;;;;;;;;;5022009;28;20866;-63
2024/01/06 13:45:26;;;;;;;6.20;5.60;;;;;;;;;;5020216;28;20215;-62
2024/01/06 13:47:53;;;;;;;6.00;5.50;;;;;;;;;;5028255;28;20317;-63
2024/01/06 13:50:22;;;;;;;7.03;6.33;;;;;;;;;;5028435;28;20209;-64
2024/01/06 13:52:49;;;;;;;7.60;6.53;;;;;;;;;;5026446;28;20207;-62
2024/01/06 13:55:16;;;;;;;4.97;4.47;;;;;;;;;;5024609;28;20326;-65
2024/01/06 13:57:43;;;;;;;5.07;4.67;;;;;;;;;;5028012;28;20528;-63
2024/01/06 14:00:13;;;;;;;5.23;4.77;;;;;;;;;;5033585;28;20208;-63
2024/01/06 14:02:41;;;;;;;7.87;6.23;;;;;;;;;;5032090;28;20209;-63
2024/01/06 14:05:08;;;;;;;5.60;4.87;;;;;;;;;;5026389;28;20211;-64
2024/01/06 14:07:38;;;;;;;5.33;4.83;;;;;;;;;;5054555;28;20642;-63
2024/01/06 14:10:05;;;;;;;5.60;4.67;;;;;;;;;;5044009;28;20250;-63
2024/01/06 14:12:33;;;;;;;4.70;4.20;;;;;;;;;;5044519;28;20210;-63
2024/01/06 14:15:01;;;;;;;8.60;7.13;;;;;;;;;;5040574;28;20202;-64
2024/01/06 14:17:28;;;;;;;7.80;7.00;;;;;;;;;;5040027;28;20212;-63
2024/01/06 14:19:55;;;;;;;5.80;5.20;;;;;;;;;;5041615;28;20203;-64
2024/01/06 14:22:22;;;;;;;5.23;4.73;;;;;;;;;;5038007;28;20213;-63
2024/01/06 14:24:51;;;;;;;5.20;4.70;;;;;;;;;;5029628;28;20212;-64
2024/01/06 14:27:18;;;;;;;4.20;3.80;;;;;;;;;;5029994;28;20211;-64
2024/01/06 14:29:46;;;;;;;5.47;4.40;;;;;;;;;;5028560;28;20218;-63
2024/01/06 14:32:14;;;;;;;4.60;4.20;;;;;;;;;;5028446;28;20204;-63
2024/01/06 14:34:41;;;;;;;4.50;3.77;;;;;;;;;;5031963;28;20215;-63
2024/01/06 14:37:08;;;;;;;4.40;4.00;;;;;;;;;;5033731;28;20196;-63
2024/01/06 14:39:36;;;;;;;4.63;4.10;;;;;;;;;;5045234;28;20196;-63
2024/01/06 14:42:05;;;;;;;4.03;3.67;;;;;;;;;;5036675;28;20279;-64
2024/01/06 14:44:32;;;;;;;4.07;3.73;;;;;;;;;;5036873;28;20326;-69